createdAt,value
2019-03-15T00:01:50.919Z,27.37
2019-03-15T00:04:19.501Z,23.83
2019-03-15T00:06:50.323Z,21.10
2019-03-15T00:09:18.790Z,18.87
2019-03-15T00:11:47.348Z,19.10
2019-03-15T00:14:15.876Z,24.23
2019-03-15T00:16:47.273Z,23.22
2019-03-15T00:19:15.746Z,22.42
2019-03-15T00:21:44.290Z,15.83
2019-03-15T00:24:14.405Z,22.65
2019-03-15T00:26:42.918Z,16.73
2019-03-15T00:29:11.395Z,24.75
2019-03-15T00:31:39.883Z,18.35
2019-03-15T00:34:09.634Z,23.47
2019-03-15T00:36:38.116Z,16.48
2019-03-15T00:39:07.068Z,20.08
2019-03-15T00:41:35.694Z,13.70
2019-03-15T00:44:04.349Z,15.20
2019-03-15T00:46:32.981Z,18.00
2019-03-15T00:49:01.488Z,19.40
2019-03-15T00:51:30.090Z,17.52
2019-03-15T00:54:01.142Z,14.05
2019-03-15T00:56:29.725Z,21.48
2019-03-15T00:58:58.380Z,20.25
2019-03-15T01:01:26.884Z,19.05
2019-03-15T01:03:55.529Z,17.67
2019-03-15T01:06:24.017Z,16.85
2019-03-15T01:08:52.571Z,15.85
2019-03-15T01:11:21.024Z,16.05
2019-03-15T01:13:49.518Z,14.95
2019-03-15T01:16:17.970Z,18.15
2019-03-15T01:18:46.503Z,18.90
2019-03-15T01:21:14.957Z,19.35
2019-03-15T01:23:46.368Z,17.75
2019-03-15T01:26:14.851Z,20.88
2019-03-15T01:28:43.326Z,19.62
2019-03-15T01:31:11.823Z,21.05
2019-03-15T01:33:40.371Z,20.32
2019-03-15T01:36:08.910Z,23.75
2019-03-15T01:38:37.371Z,20.37
2019-03-15T01:41:07.643Z,20.37
2019-03-15T01:43:36.107Z,18.90
2019-03-15T01:46:06.215Z,24.75
2019-03-15T01:48:35.625Z,16.77
2019-03-15T01:51:10.523Z,19.67
2019-03-15T01:53:39.021Z,20.45
2019-03-15T01:56:07.501Z,18.67
2019-03-15T01:58:35.957Z,22.10
2019-03-15T02:01:04.765Z,16.05
2019-03-15T02:03:33.229Z,23.25
2019-03-15T02:06:01.712Z,24.60
2019-03-15T02:08:30.183Z,21.73
2019-03-15T02:10:59.534Z,24.37
2019-03-15T02:13:28.005Z,23.38
2019-03-15T02:15:56.463Z,15.05
2019-03-15T02:18:24.942Z,25.27
2019-03-15T02:20:54.577Z,21.93
2019-03-15T02:23:23.554Z,18.70
2019-03-15T02:25:52.085Z,17.70
2019-03-15T02:28:21.049Z,24.10
2019-03-15T02:30:49.640Z,21.10
2019-03-15T02:33:18.097Z,22.67
2019-03-15T02:35:47.233Z,19.00
2019-03-15T02:38:15.842Z,21.12
2019-03-15T02:40:44.412Z,16.95
2019-03-15T02:43:14.481Z,19.70
2019-03-15T02:45:42.955Z,20.60
2019-03-15T02:48:11.437Z,25.68
2019-03-15T02:50:41.012Z,19.37
2019-03-15T02:53:09.975Z,23.73
2019-03-15T02:55:38.493Z,18.98
2019-03-15T02:58:06.970Z,20.40
2019-03-15T03:00:35.426Z,18.92
2019-03-15T03:03:03.941Z,22.75
2019-03-15T03:05:33.599Z,17.65
2019-03-15T03:08:02.750Z,15.85
2019-03-15T03:10:32.779Z,20.45
2019-03-15T03:13:01.304Z,15.48
2019-03-15T03:15:30.264Z,19.35
2019-03-15T03:17:58.839Z,20.50
2019-03-15T03:20:27.334Z,18.05
2019-03-15T03:22:55.785Z,14.43
2019-03-15T03:25:25.985Z,23.32
2019-03-15T03:27:54.443Z,16.77
2019-03-15T03:30:23.132Z,15.18
2019-03-15T03:32:51.662Z,25.25
2019-03-15T03:35:20.409Z,18.30
2019-03-15T03:37:49.041Z,20.48
2019-03-15T03:40:20.007Z,19.95
2019-03-15T03:42:47.906Z,20.90
2019-03-15T03:45:16.570Z,24.40
2019-03-15T03:47:45.095Z,23.42
2019-03-15T03:50:13.752Z,19.98
2019-03-15T03:52:42.224Z,17.48
2019-03-15T03:55:10.971Z,16.82
2019-03-15T03:57:40.306Z,13.93
2019-03-15T04:00:14.606Z,17.77
2019-03-15T04:02:44.750Z,15.63
2019-03-15T04:05:13.410Z,14.18
2019-03-15T04:07:45.104Z,15.93
2019-03-15T04:10:15.272Z,20.10
2019-03-15T04:12:45.268Z,16.55
2019-03-15T04:15:14.008Z,16.55
2019-03-15T04:17:42.657Z,15.30
2019-03-15T04:20:12.837Z,16.87
2019-03-15T04:22:41.338Z,18.15
2019-03-15T04:25:13.914Z,19.90
2019-03-15T04:27:42.385Z,20.30
2019-03-15T04:30:13.489Z,19.35
2019-03-15T04:32:41.952Z,26.05
2019-03-15T04:35:10.683Z,22.48
2019-03-15T04:37:39.462Z,17.35
2019-03-15T04:40:12.743Z,20.12
2019-03-15T04:42:41.330Z,17.95
2019-03-15T04:45:09.956Z,17.75
2019-03-15T04:47:38.498Z,22.55
2019-03-15T04:50:07.859Z,20.05
2019-03-15T04:52:38.716Z,15.83
2019-03-15T04:55:07.918Z,24.47
2019-03-15T04:57:36.994Z,20.02
2019-03-15T05:00:11.592Z,24.55
2019-03-15T05:05:11.201Z,23.73
2019-03-15T05:07:39.710Z,25.30
2019-03-15T05:10:09.839Z,29.92
2019-03-15T05:12:38.736Z,27.55
2019-03-15T05:15:09.490Z,27.80
2019-03-15T05:17:38.002Z,27.22
2019-03-15T05:20:08.935Z,30.20
2019-03-15T05:22:37.487Z,34.73
2019-03-15T05:25:07.393Z,29.15
2019-03-15T05:27:35.945Z,36.93
2019-03-15T05:30:06.774Z,37.13
2019-03-15T05:32:35.252Z,41.02
2019-03-15T05:35:04.406Z,37.13
2019-03-15T05:37:32.877Z,41.15
2019-03-15T05:40:02.376Z,39.65
2019-03-15T05:42:31.855Z,38.98
2019-03-15T05:45:00.439Z,43.20
2019-03-15T05:47:28.873Z,34.50
2019-03-15T05:49:57.395Z,38.78
2019-03-15T05:52:27.503Z,38.75
2019-03-15T05:54:56.003Z,35.40
2019-03-15T05:57:24.475Z,32.10
2019-03-15T05:59:52.990Z,32.65
2019-03-15T06:02:28.448Z,33.53
2019-03-15T06:04:56.246Z,35.73
2019-03-15T06:07:24.718Z,32.08
2019-03-15T06:09:53.224Z,39.45
2019-03-15T06:12:23.245Z,34.27
2019-03-15T06:14:51.703Z,31.23
2019-03-15T06:17:20.172Z,34.73
2019-03-15T06:19:48.648Z,30.43
2019-03-15T06:22:17.111Z,35.60
2019-03-15T06:24:45.570Z,36.55
2019-03-15T06:27:14.104Z,34.38
2019-03-15T06:29:42.506Z,39.05
2019-03-15T06:32:11.392Z,31.02
2019-03-15T06:34:40.212Z,37.95
2019-03-15T06:37:08.670Z,41.68
2019-03-15T06:39:37.657Z,34.73
2019-03-15T06:42:09.612Z,31.48
2019-03-15T06:44:38.017Z,33.10
2019-03-15T06:47:06.542Z,34.88
2019-03-15T06:49:35.015Z,40.33
2019-03-15T06:52:03.462Z,34.13
2019-03-15T06:54:33.634Z,39.18
2019-03-15T06:57:02.110Z,40.65
2019-03-15T06:59:30.578Z,44.03
2019-03-15T07:01:59.051Z,30.68
2019-03-15T07:04:31.146Z,35.40
2019-03-15T07:06:59.573Z,35.20
2019-03-15T07:09:30.788Z,35.90
2019-03-15T07:12:08.927Z,35.73
2019-03-15T07:14:28.480Z,37.13
2019-03-15T07:16:56.931Z,40.38
2019-03-15T07:19:30.026Z,34.15
2019-03-15T07:21:58.618Z,35.13
2019-03-15T07:24:27.108Z,43.98
2019-03-15T07:26:55.577Z,35.00
2019-03-15T07:29:24.131Z,31.00
2019-03-15T07:31:52.606Z,37.28
2019-03-15T07:34:21.087Z,29.42
2019-03-15T07:36:49.570Z,30.30
2019-03-15T07:39:18.041Z,35.10
2019-03-15T07:41:46.816Z,32.83
2019-03-15T07:44:15.294Z,40.23
2019-03-15T07:46:43.804Z,33.08
2019-03-15T07:49:23.712Z,33.88
2019-03-15T07:51:52.575Z,40.23
2019-03-15T07:54:23.707Z,32.10
2019-03-15T07:56:52.241Z,26.85
2019-03-15T07:59:20.708Z,32.90
2019-03-15T08:01:49.190Z,32.50
2019-03-15T08:04:18.169Z,34.38
2019-03-15T08:06:46.647Z,36.33
2019-03-15T08:09:15.119Z,34.33
2019-03-15T08:11:43.613Z,33.78
2019-03-15T08:14:12.090Z,34.63
2019-03-15T08:16:40.665Z,33.92
2019-03-15T08:19:11.765Z,36.30
2019-03-15T08:21:40.237Z,34.03
2019-03-15T08:24:08.782Z,32.70
2019-03-15T08:26:37.263Z,35.28
2019-03-15T08:29:09.418Z,37.58
2019-03-15T08:31:36.367Z,37.60
2019-03-15T08:34:05.050Z,30.17
2019-03-15T08:36:33.591Z,34.67
2019-03-15T08:39:02.063Z,35.70
2019-03-15T08:41:30.609Z,36.20
2019-03-15T08:43:59.095Z,29.87
2019-03-15T08:46:27.558Z,40.00
2019-03-15T08:48:56.041Z,31.65
2019-03-15T08:51:24.996Z,33.90
2019-03-15T08:53:53.532Z,38.30
2019-03-15T08:56:22.027Z,36.00
2019-03-15T08:58:50.598Z,37.90
2019-03-15T09:01:19.139Z,31.77
2019-03-15T09:03:47.690Z,35.00
2019-03-15T09:06:16.285Z,34.23
2019-03-15T09:08:51.158Z,37.70
2019-03-15T09:11:19.775Z,37.17
2019-03-15T09:13:49.362Z,32.88
2019-03-15T09:16:19.397Z,35.70
2019-03-15T09:18:49.453Z,32.13
2019-03-15T09:21:17.947Z,36.48
2019-03-15T09:23:46.443Z,34.60
2019-03-15T09:26:14.936Z,34.40
2019-03-15T09:28:43.903Z,34.78
2019-03-15T09:31:12.464Z,39.92
2019-03-15T09:33:44.065Z,31.97
2019-03-15T09:36:12.567Z,35.52
2019-03-15T09:38:41.112Z,35.78
2019-03-15T09:41:09.664Z,34.95
2019-03-15T09:43:38.196Z,32.20
2019-03-15T09:46:11.204Z,28.55
2019-03-15T09:48:39.759Z,26.73
2019-03-15T09:51:08.528Z,30.12
2019-03-15T09:53:37.024Z,29.82
2019-03-15T09:56:05.567Z,23.10
2019-03-15T09:58:35.427Z,28.90
2019-03-15T10:01:04.300Z,31.15
2019-03-15T10:03:33.019Z,25.37
2019-03-15T10:06:14.281Z,26.20
2019-03-15T10:08:31.696Z,27.32
2019-03-15T10:11:00.182Z,24.00
2019-03-15T10:13:28.666Z,19.85
2019-03-15T10:15:57.148Z,26.68
2019-03-15T10:18:25.586Z,20.88
2019-03-15T10:20:54.069Z,20.12
2019-03-15T10:23:22.573Z,19.77
2019-03-15T10:25:51.485Z,24.07
2019-03-15T10:28:22.744Z,21.97
2019-03-15T10:30:53.915Z,21.40
2019-03-15T10:33:22.460Z,21.55
2019-03-15T10:35:52.565Z,18.85
2019-03-15T10:38:21.850Z,18.37
2019-03-15T10:40:50.318Z,19.20
2019-03-15T10:43:20.070Z,16.62
2019-03-15T10:45:48.535Z,19.40
2019-03-15T10:48:25.405Z,19.32
2019-03-15T10:50:50.434Z,20.75
2019-03-15T10:53:18.969Z,23.67
2019-03-15T10:56:00.273Z,21.70
2019-03-15T10:58:20.605Z,23.60
2019-03-15T11:00:49.164Z,26.87
2019-03-15T11:03:18.790Z,21.90
2019-03-15T11:05:47.240Z,24.55
2019-03-15T11:08:15.811Z,28.85
2019-03-15T11:10:44.313Z,27.95
2019-03-15T11:13:12.796Z,29.02
2019-03-15T11:15:43.007Z,24.82
2019-03-15T11:18:11.468Z,26.90
2019-03-15T11:20:40.030Z,30.95
2019-03-15T11:23:08.479Z,28.05
2019-03-15T11:25:37.155Z,25.97
2019-03-15T11:28:05.622Z,37.58
2019-03-15T11:30:37.147Z,26.75
2019-03-15T11:33:05.765Z,36.77
2019-03-15T11:35:34.263Z,28.38
2019-03-15T11:38:03.101Z,31.05
2019-03-15T11:40:33.611Z,28.50
2019-03-15T11:43:01.785Z,43.33
2019-03-15T11:45:31.794Z,39.05
2019-03-15T11:48:03.946Z,33.50
2019-03-15T11:50:33.561Z,39.98
2019-03-15T11:53:02.021Z,37.08
2019-03-15T11:55:30.675Z,32.90
2019-03-15T11:57:59.221Z,38.08
2019-03-15T12:00:27.766Z,38.13
2019-03-15T12:02:57.953Z,37.28
2019-03-15T12:05:29.578Z,33.83
2019-03-15T12:07:58.207Z,35.92
2019-03-15T12:10:26.736Z,35.35
2019-03-15T12:12:55.572Z,35.40
2019-03-15T12:15:24.181Z,43.70
2019-03-15T12:17:52.923Z,38.55
2019-03-15T12:20:21.594Z,34.00
2019-03-15T12:22:50.269Z,37.70
2019-03-15T12:25:18.959Z,37.80
2019-03-15T12:27:47.419Z,28.15
2019-03-15T12:30:17.741Z,28.23
2019-03-15T12:32:46.455Z,29.12
2019-03-15T12:35:15.859Z,30.20
2019-03-15T12:37:44.374Z,30.10
2019-03-15T12:40:14.518Z,28.67
2019-03-15T12:42:43.189Z,26.00
2019-03-15T12:45:12.720Z,24.32
2019-03-15T12:47:41.271Z,27.95
2019-03-15T12:50:15.587Z,26.33
2019-03-15T12:52:48.438Z,22.10
2019-03-15T12:55:15.218Z,22.98
2019-03-15T12:57:49.307Z,19.02
2019-03-15T13:00:20.199Z,23.75
2019-03-15T13:02:50.286Z,23.32
2019-03-15T13:05:20.452Z,26.85
2019-03-15T13:07:49.058Z,21.70
2019-03-15T13:10:19.434Z,25.45
2019-03-15T13:12:48.234Z,22.07
2019-03-15T13:15:19.855Z,23.15
2019-03-15T13:17:50.079Z,22.98
2019-03-15T13:20:29.132Z,21.85
2019-03-15T13:22:56.819Z,23.22
2019-03-15T13:25:27.436Z,23.00
2019-03-15T13:27:57.658Z,20.02
2019-03-15T13:30:26.780Z,21.62
2019-03-15T13:32:57.235Z,26.97
2019-03-15T13:35:26.228Z,28.25
2019-03-15T13:38:04.733Z,29.45
2019-03-15T13:40:35.287Z,39.98
2019-03-15T13:43:04.738Z,29.98
2019-03-15T13:45:33.196Z,23.90
2019-03-15T13:48:01.812Z,28.42
2019-03-15T13:50:30.262Z,22.52
2019-03-15T13:53:00.365Z,21.35
2019-03-15T13:55:28.826Z,19.95
2019-03-15T13:57:57.358Z,19.48
2019-03-15T14:00:29.107Z,19.07
2019-03-15T14:02:58.339Z,18.05
2019-03-15T14:05:27.012Z,21.52
2019-03-15T14:07:55.803Z,20.05
2019-03-15T14:10:27.071Z,25.72
2019-03-15T14:12:55.562Z,25.55
2019-03-15T14:15:24.294Z,21.95
2019-03-15T14:17:56.119Z,16.75
2019-03-15T14:20:24.701Z,15.53
2019-03-15T14:22:55.955Z,21.42
2019-03-15T14:25:27.963Z,12.78
2019-03-15T14:27:56.648Z,17.82
2019-03-15T14:30:25.296Z,16.40
2019-03-15T14:32:53.748Z,13.32
2019-03-15T14:35:22.491Z,16.25
2019-03-15T14:37:52.667Z,20.70
2019-03-15T14:40:22.529Z,14.15
2019-03-15T14:42:55.273Z,9.40
2019-03-15T14:45:24.249Z,17.92
2019-03-15T14:47:52.766Z,13.90
2019-03-15T14:50:23.335Z,20.17
2019-03-15T14:52:53.405Z,19.15
2019-03-15T14:55:23.571Z,20.90
2019-03-15T14:57:54.997Z,21.48
2019-03-15T15:00:25.657Z,16.07
2019-03-15T15:02:55.667Z,15.98
2019-03-15T15:05:24.292Z,21.42
2019-03-15T15:07:52.821Z,18.60
2019-03-15T15:10:22.959Z,17.50
2019-03-15T15:12:53.117Z,16.87
2019-03-15T15:15:21.872Z,16.52
2019-03-15T15:17:53.326Z,15.00
2019-03-15T15:20:21.994Z,16.45
2019-03-15T15:22:50.470Z,16.97
2019-03-15T15:25:19.139Z,19.45
2019-03-15T15:27:47.797Z,18.50
2019-03-15T15:30:17.235Z,22.37
2019-03-15T15:32:45.721Z,33.75
2019-03-15T15:35:14.883Z,25.62
2019-03-15T15:37:45.523Z,18.25
2019-03-15T15:40:16.121Z,23.00
2019-03-15T15:42:45.341Z,22.15
2019-03-15T15:45:14.373Z,24.05
2019-03-15T15:47:43.011Z,20.25
2019-03-15T15:50:17.926Z,39.63
2019-03-15T15:52:48.133Z,22.73
2019-03-15T15:55:42.499Z,17.48
2019-03-15T15:58:17.866Z,24.82
2019-03-15T16:00:41.155Z,23.50
2019-03-15T16:03:09.711Z,25.35
2019-03-15T16:05:38.194Z,21.35
2019-03-15T16:08:06.827Z,22.00
2019-03-15T16:10:37.429Z,17.80
2019-03-15T16:13:16.563Z,24.72
2019-03-15T16:15:36.232Z,27.32
2019-03-15T16:18:04.786Z,22.10
2019-03-15T16:20:33.258Z,23.62
2019-03-15T16:23:04.455Z,17.98
2019-03-15T16:25:32.929Z,22.27
2019-03-15T16:28:01.409Z,21.62
2019-03-15T16:30:29.961Z,21.55
2019-03-15T16:33:03.773Z,25.70
2019-03-15T16:35:33.775Z,26.63
2019-03-15T16:38:02.463Z,28.27
2019-03-15T16:40:31.031Z,20.55
2019-03-15T16:43:06.026Z,20.70
2019-03-15T16:45:31.490Z,25.48
2019-03-15T16:48:00.052Z,40.28
2019-03-15T16:50:28.582Z,23.60
2019-03-15T16:52:57.836Z,27.45
2019-03-15T16:55:27.846Z,27.20
2019-03-15T16:57:59.338Z,25.35
2019-03-15T17:00:28.025Z,21.82
2019-03-15T17:02:56.644Z,20.82
2019-03-15T17:05:26.926Z,20.75
2019-03-15T17:07:55.397Z,26.57
2019-03-15T17:10:29.763Z,28.80
2019-03-15T17:12:58.482Z,22.50
2019-03-15T17:15:29.761Z,19.42
2019-03-15T17:17:58.325Z,22.10
2019-03-15T17:20:26.924Z,30.00
2019-03-15T17:22:55.405Z,25.80
2019-03-15T17:25:24.047Z,23.95
2019-03-15T17:27:52.542Z,28.57
2019-03-15T17:30:21.229Z,25.60
2019-03-15T17:32:49.832Z,23.18
2019-03-15T17:35:19.610Z,23.12
2019-03-15T17:37:49.352Z,24.25
2019-03-15T17:40:23.164Z,21.57
2019-03-15T17:42:51.746Z,25.93
2019-03-15T17:45:20.357Z,22.58
2019-03-15T17:47:48.904Z,24.10
2019-03-15T17:50:22.823Z,25.27
2019-03-15T17:52:51.469Z,19.62
2019-03-15T17:55:27.339Z,28.57
2019-03-15T17:57:55.722Z,21.45
2019-03-15T18:00:42.760Z,28.17
2019-03-15T18:03:20.831Z,25.05
2019-03-15T18:05:43.799Z,20.32
2019-03-15T18:08:15.194Z,24.55
2019-03-15T18:10:43.711Z,22.85
2019-03-15T18:13:12.251Z,25.00
2019-03-15T18:15:40.800Z,21.45
2019-03-15T18:18:09.359Z,23.92
2019-03-15T18:20:37.959Z,22.27
2019-03-15T18:23:10.942Z,24.00
2019-03-15T18:25:41.812Z,30.77
2019-03-15T18:28:10.813Z,23.32
2019-03-15T18:30:39.355Z,24.00
2019-03-15T18:33:07.896Z,28.62
2019-03-15T18:35:36.423Z,30.43
2019-03-15T18:38:07.704Z,31.50
2019-03-15T18:40:36.188Z,28.12
2019-03-15T18:43:04.663Z,24.77
2019-03-15T18:45:33.352Z,35.65
2019-03-15T18:48:02.321Z,25.92
2019-03-15T18:50:30.874Z,26.17
2019-03-15T18:52:59.358Z,25.97
2019-03-15T18:55:27.824Z,24.35
2019-03-15T18:57:58.732Z,29.10
2019-03-15T19:00:27.546Z,26.12
2019-03-15T19:02:56.032Z,28.62
2019-03-15T19:05:24.587Z,26.25
2019-03-15T19:07:53.029Z,29.72
2019-03-15T19:10:22.400Z,22.95
2019-03-15T19:12:53.421Z,29.35
2019-03-15T19:15:22.492Z,26.85
2019-03-15T19:17:51.086Z,25.12
2019-03-15T19:20:20.647Z,39.40
2019-03-15T19:22:49.246Z,23.07
2019-03-15T19:25:19.468Z,22.67
2019-03-15T19:27:48.055Z,21.62
2019-03-15T19:30:21.515Z,23.87
2019-03-15T19:32:50.039Z,20.52
2019-03-15T19:35:18.834Z,21.90
2019-03-15T19:37:47.385Z,29.87
2019-03-15T19:40:18.114Z,34.08
2019-03-15T19:42:46.655Z,21.75
2019-03-15T19:45:15.967Z,28.25
2019-03-15T19:47:44.524Z,27.40
2019-03-15T19:50:22.081Z,25.65
2019-03-15T19:52:50.576Z,26.45
2019-03-15T19:55:19.228Z,22.15
2019-03-15T19:57:47.766Z,26.52
2019-03-15T20:00:18.020Z,29.72
2019-03-15T20:02:46.499Z,25.97
2019-03-15T20:05:15.474Z,24.90
2019-03-15T20:07:44.132Z,29.27
2019-03-15T20:10:16.521Z,25.57
2019-03-15T20:12:44.421Z,24.90
2019-03-15T20:15:14.607Z,24.92
2019-03-15T20:17:44.716Z,25.45
2019-03-15T20:20:19.115Z,30.72
2019-03-15T20:22:47.603Z,20.77
2019-03-15T20:25:19.483Z,27.50
2019-03-15T20:27:47.967Z,27.80
2019-03-15T20:30:26.157Z,27.45
2019-03-15T20:32:51.842Z,26.37
2019-03-15T20:35:20.529Z,23.18
2019-03-15T20:37:49.056Z,27.58
2019-03-15T20:40:17.743Z,23.52
2019-03-15T20:42:46.196Z,24.80
2019-03-15T20:45:23.327Z,21.60
2019-03-15T20:47:51.794Z,34.08
2019-03-15T20:50:20.535Z,28.92
2019-03-15T20:52:49.019Z,30.92
2019-03-15T20:55:17.697Z,27.35
2019-03-15T20:57:46.261Z,25.05
2019-03-15T21:00:34.411Z,29.02
2019-03-15T21:02:50.680Z,24.27
2019-03-15T21:05:22.077Z,28.05
2019-03-15T21:07:51.018Z,28.00
2019-03-15T21:10:22.671Z,28.90
2019-03-15T21:12:51.199Z,23.77
2019-03-15T21:15:19.864Z,32.80
2019-03-15T21:17:48.328Z,29.72
2019-03-15T21:20:22.357Z,31.75
2019-03-15T21:22:51.660Z,24.67
2019-03-15T21:25:25.171Z,28.55
2019-03-15T21:27:54.750Z,23.07
2019-03-15T21:30:30.158Z,30.05
2019-03-15T21:33:02.004Z,26.73
2019-03-15T21:35:30.637Z,26.57
2019-03-15T21:37:59.269Z,28.42
2019-03-15T21:40:27.772Z,26.37
2019-03-15T21:42:56.288Z,26.15
2019-03-15T21:45:24.913Z,33.60
2019-03-15T21:47:53.859Z,26.33
2019-03-15T21:50:23.274Z,26.80
2019-03-15T21:52:51.913Z,24.77
2019-03-15T21:55:20.864Z,28.12
2019-03-15T21:57:49.315Z,34.35
2019-03-15T22:00:18.917Z,33.05
2019-03-15T22:02:47.449Z,28.70
2019-03-15T22:05:16.196Z,25.92
2019-03-15T22:07:46.222Z,25.85
2019-03-15T22:10:15.789Z,27.98
2019-03-15T22:12:44.382Z,32.17
2019-03-15T22:15:16.112Z,32.08
2019-03-15T22:17:44.875Z,25.52
2019-03-15T22:20:14.826Z,30.57
2019-03-15T22:22:43.500Z,25.08
2019-03-15T22:25:12.330Z,31.87
2019-03-15T22:27:41.323Z,32.48
2019-03-15T22:30:12.103Z,27.65
2019-03-15T22:32:41.610Z,30.45
2019-03-15T22:35:10.558Z,26.65
2019-03-15T22:37:39.040Z,28.40
2019-03-15T22:40:09.960Z,26.82
2019-03-15T22:42:38.556Z,25.97
2019-03-15T22:45:09.761Z,30.62
2019-03-15T22:47:40.026Z,30.25
2019-03-15T22:50:10.022Z,28.90
2019-03-15T22:52:38.584Z,29.30
2019-03-15T22:55:11.405Z,25.92
2019-03-15T22:57:40.169Z,27.60
2019-03-15T23:00:17.903Z,30.27
2019-03-15T23:02:46.561Z,30.43
2019-03-15T23:05:15.271Z,30.40
2019-03-15T23:07:43.817Z,25.00
2019-03-15T23:10:14.122Z,30.17
2019-03-15T23:12:42.599Z,28.17
2019-03-15T23:15:12.695Z,30.37
2019-03-15T23:17:42.213Z,28.87
2019-03-15T23:20:14.365Z,26.48
2019-03-15T23:22:42.858Z,32.48
2019-03-15T23:25:13.379Z,29.02
2019-03-15T23:27:41.867Z,24.60
2019-03-15T23:30:13.029Z,32.75
2019-03-15T23:32:41.774Z,31.10
2019-03-15T23:35:10.417Z,25.72
2019-03-15T23:37:39.091Z,26.10
2019-03-15T23:40:12.237Z,30.02
2019-03-15T23:42:42.373Z,34.00
2019-03-15T23:45:11.611Z,27.90
2019-03-15T23:47:40.226Z,28.35
2019-03-15T23:50:11.424Z,29.87
2019-03-15T23:52:40.653Z,30.55
2019-03-15T23:55:09.311Z,31.15
2019-03-15T23:57:38.729Z,26.95
